sensor_id;sensor_type;location;lat;lon;timestamp;P1;durP1;ratioP1;P2;durP2;ratioP2
23596;SDS011;40226;50.874;4.394;2023-04-21T00:01:02;27.42;;;19.80;;
23596;SDS011;40226;50.874;4.394;2023-04-21T00:03:32;31.23;;;19.50;;
23596;SDS011;40226;50.874;4.394;2023-04-21T00:06:02;29.25;;;19.60;;
23596;SDS011;40226;50.874;4.394;2023-04-21T00:08:30;25.23;;;19.05;;
23596;SDS011;40226;50.874;4.394;2023-04-21T00:10:56;31.15;;;19.23;;
23596;SDS011;40226;50.874;4.394;2023-04-21T00:13:21;27.70;;;18.88;;
23596;SDS011;40226;50.874;4.394;2023-04-21T00:15:48;27.17;;;19.20;;
23596;SDS011;40226;50.874;4.394;2023-04-21T00:18:14;28.45;;;20.05;;
23596;SDS011;40226;50.874;4.394;2023-04-21T00:20:40;26.02;;;18.50;;
23596;SDS011;40226;50.874;4.394;2023-04-21T00:23:07;27.65;;;20.65;;
23596;SDS011;40226;50.874;4.394;2023-04-21T00:25:34;28.08;;;20.08;;
23596;SDS011;40226;50.874;4.394;2023-04-21T00:28:00;26.83;;;19.33;;
23596;SDS011;40226;50.874;4.394;2023-04-21T00:30:26;30.90;;;20.80;;
23596;SDS011;40226;50.874;4.394;2023-04-21T00:32:51;26.55;;;19.98;;
23596;SDS011;40226;50.874;4.394;2023-04-21T00:35:17;28.27;;;20.63;;
23596;SDS011;40226;50.874;4.394;2023-04-21T00:37:43;30.45;;;20.88;;
23596;SDS011;40226;50.874;4.394;2023-04-21T00:40:09;27.73;;;19.85;;
23596;SDS011;40226;50.874;4.394;2023-04-21T00:42:35;27.42;;;20.20;;
23596;SDS011;40226;50.874;4.394;2023-04-21T00:45:01;30.63;;;21.58;;
23596;SDS011;40226;50.874;4.394;2023-04-21T00:47:30;28.02;;;20.13;;
23596;SDS011;40226;50.874;4.394;2023-04-21T00:49:56;29.13;;;21.77;;
23596;SDS011;40226;50.874;4.394;2023-04-21T00:52:22;29.38;;;20.85;;
23596;SDS011;40226;50.874;4.394;2023-04-21T00:54:49;27.63;;;21.05;;
23596;SDS011;40226;50.874;4.394;2023-04-21T00:57:14;29.60;;;21.70;;
23596;SDS011;40226;50.874;4.394;2023-04-21T00:59:40;30.85;;;21.95;;
23596;SDS011;40226;50.874;4.394;2023-04-21T01:02:07;32.50;;;22.10;;
23596;SDS011;40226;50.874;4.394;2023-04-21T01:04:33;30.83;;;21.95;;
23596;SDS011;40226;50.874;4.394;2023-04-21T01:07:03;36.92;;;25.13;;
23596;SDS011;40226;50.874;4.394;2023-04-21T01:09:31;35.72;;;25.17;;
23596;SDS011;40226;50.874;4.394;2023-04-21T01:12:01;37.47;;;26.15;;
23596;SDS011;40226;50.874;4.394;2023-04-21T01:14:32;41.78;;;28.25;;
23596;SDS011;40226;50.874;4.394;2023-04-21T01:16:58;39.05;;;26.83;;
23596;SDS011;40226;50.874;4.394;2023-04-21T01:19:24;40.20;;;27.70;;
23596;SDS011;40226;50.874;4.394;2023-04-21T01:21:52;41.20;;;28.33;;
23596;SDS011;40226;50.874;4.394;2023-04-21T01:24:21;45.90;;;29.08;;
23596;SDS011;40226;50.874;4.394;2023-04-21T01:26:48;43.75;;;29.40;;
23596;SDS011;40226;50.874;4.394;2023-04-21T01:29:14;43.85;;;29.73;;
23596;SDS011;40226;50.874;4.394;2023-04-21T01:31:41;42.83;;;29.50;;
23596;SDS011;40226;50.874;4.394;2023-04-21T01:34:07;45.47;;;30.42;;
23596;SDS011;40226;50.874;4.394;2023-04-21T01:36:32;44.85;;;30.52;;
23596;SDS011;40226;50.874;4.394;2023-04-21T01:39:00;49.00;;;32.38;;
23596;SDS011;40226;50.874;4.394;2023-04-21T01:41:26;50.55;;;33.10;;
23596;SDS011;40226;50.874;4.394;2023-04-21T01:43:51;53.55;;;35.75;;
23596;SDS011;40226;50.874;4.394;2023-04-21T01:46:20;54.17;;;35.63;;
23596;SDS011;40226;50.874;4.394;2023-04-21T01:48:46;53.63;;;34.35;;
23596;SDS011;40226;50.874;4.394;2023-04-21T01:51:12;57.60;;;37.05;;
23596;SDS011;40226;50.874;4.394;2023-04-21T01:53:37;55.83;;;36.50;;
23596;SDS011;40226;50.874;4.394;2023-04-21T01:56:03;60.45;;;37.90;;
23596;SDS011;40226;50.874;4.394;2023-04-21T01:58:29;60.72;;;38.53;;
23596;SDS011;40226;50.874;4.394;2023-04-21T02:00:54;60.92;;;38.35;;
23596;SDS011;40226;50.874;4.394;2023-04-21T02:03:20;62.25;;;38.78;;
23596;SDS011;40226;50.874;4.394;2023-04-21T02:05:45;59.80;;;38.45;;
23596;SDS011;40226;50.874;4.394;2023-04-21T02:08:11;63.70;;;40.47;;
23596;SDS011;40226;50.874;4.394;2023-04-21T02:10:37;63.75;;;41.03;;
23596;SDS011;40226;50.874;4.394;2023-04-21T02:13:02;65.15;;;39.97;;
23596;SDS011;40226;50.874;4.394;2023-04-21T02:15:28;67.00;;;40.80;;
23596;SDS011;40226;50.874;4.394;2023-04-21T02:17:53;65.50;;;40.85;;
23596;SDS011;40226;50.874;4.394;2023-04-21T02:20:19;65.70;;;41.17;;
23596;SDS011;40226;50.874;4.394;2023-04-21T02:22:45;65.65;;;40.90;;
23596;SDS011;40226;50.874;4.394;2023-04-21T02:25:10;66.60;;;40.70;;
23596;SDS011;40226;50.874;4.394;2023-04-21T02:27:36;66.47;;;40.28;;
23596;SDS011;40226;50.874;4.394;2023-04-21T02:30:02;70.43;;;41.83;;
23596;SDS011;40226;50.874;4.394;2023-04-21T02:32:28;70.30;;;42.50;;
23596;SDS011;40226;50.874;4.394;2023-04-21T02:34:53;66.97;;;43.05;;
23596;SDS011;40226;50.874;4.394;2023-04-21T02:37:19;66.90;;;42.70;;
23596;SDS011;40226;50.874;4.394;2023-04-21T02:39:45;68.38;;;42.42;;
23596;SDS011;40226;50.874;4.394;2023-04-21T02:42:11;71.28;;;43.22;;
23596;SDS011;40226;50.874;4.394;2023-04-21T02:44:36;69.07;;;42.95;;
23596;SDS011;40226;50.874;4.394;2023-04-21T02:47:02;75.80;;;42.60;;
23596;SDS011;40226;50.874;4.394;2023-04-21T02:49:28;70.10;;;43.33;;
23596;SDS011;40226;50.874;4.394;2023-04-21T02:51:53;70.82;;;42.72;;
23596;SDS011;40226;50.874;4.394;2023-04-21T02:54:19;76.75;;;45.45;;
23596;SDS011;40226;50.874;4.394;2023-04-21T02:56:45;80.88;;;45.95;;
23596;SDS011;40226;50.874;4.394;2023-04-21T02:59:10;80.25;;;47.97;;
23596;SDS011;40226;50.874;4.394;2023-04-21T03:01:40;77.70;;;46.88;;
23596;SDS011;40226;50.874;4.394;2023-04-21T03:04:06;79.53;;;46.38;;
23596;SDS011;40226;50.874;4.394;2023-04-21T03:06:32;77.55;;;47.20;;
23596;SDS011;40226;50.874;4.394;2023-04-21T03:08:58;86.07;;;49.13;;
23596;SDS011;40226;50.874;4.394;2023-04-21T03:11:23;81.28;;;48.33;;
23596;SDS011;40226;50.874;4.394;2023-04-21T03:13:49;78.30;;;47.33;;
23596;SDS011;40226;50.874;4.394;2023-04-21T03:16:14;79.95;;;46.97;;
23596;SDS011;40226;50.874;4.394;2023-04-21T03:18:40;80.45;;;47.30;;
23596;SDS011;40226;50.874;4.394;2023-04-21T03:21:06;80.53;;;48.35;;
23596;SDS011;40226;50.874;4.394;2023-04-21T03:23:32;80.47;;;46.15;;
23596;SDS011;40226;50.874;4.394;2023-04-21T03:25:57;79.72;;;47.38;;
23596;SDS011;40226;50.874;4.394;2023-04-21T03:28:23;85.22;;;47.55;;
23596;SDS011;40226;50.874;4.394;2023-04-21T03:30:48;80.82;;;48.13;;
23596;SDS011;40226;50.874;4.394;2023-04-21T03:33:14;85.07;;;50.40;;
23596;SDS011;40226;50.874;4.394;2023-04-21T03:35:40;83.50;;;48.83;;
23596;SDS011;40226;50.874;4.394;2023-04-21T03:38:05;82.00;;;48.60;;
23596;SDS011;40226;50.874;4.394;2023-04-21T03:40:31;82.75;;;49.10;;
23596;SDS011;40226;50.874;4.394;2023-04-21T03:42:57;80.97;;;48.50;;
23596;SDS011;40226;50.874;4.394;2023-04-21T03:45:22;88.05;;;50.97;;
23596;SDS011;40226;50.874;4.394;2023-04-21T03:47:51;81.53;;;49.38;;
23596;SDS011;40226;50.874;4.394;2023-04-21T03:50:18;89.75;;;50.30;;
23596;SDS011;40226;50.874;4.394;2023-04-21T03:52:44;88.13;;;51.38;;
23596;SDS011;40226;50.874;4.394;2023-04-21T03:55:10;83.65;;;48.60;;
23596;SDS011;40226;50.874;4.394;2023-04-21T03:57:39;90.72;;;50.40;;
23596;SDS011;40226;50.874;4.394;2023-04-21T04:00:08;84.32;;;48.75;;
23596;SDS011;40226;50.874;4.394;2023-04-21T04:02:34;84.60;;;48.45;;
23596;SDS011;40226;50.874;4.394;2023-04-21T04:05:01;85.88;;;48.95;;
23596;SDS011;40226;50.874;4.394;2023-04-21T04:07:27;88.53;;;49.92;;
23596;SDS011;40226;50.874;4.394;2023-04-21T04:09:53;85.28;;;49.20;;
23596;SDS011;40226;50.874;4.394;2023-04-21T04:12:19;85.72;;;50.20;;
23596;SDS011;40226;50.874;4.394;2023-04-21T04:14:45;88.40;;;50.35;;
23596;SDS011;40226;50.874;4.394;2023-04-21T04:17:10;91.85;;;51.63;;
23596;SDS011;40226;50.874;4.394;2023-04-21T04:19:36;96.15;;;52.15;;
23596;SDS011;40226;50.874;4.394;2023-04-21T04:22:01;97.07;;;54.17;;
23596;SDS011;40226;50.874;4.394;2023-04-21T04:24:27;93.43;;;53.40;;
23596;SDS011;40226;50.874;4.394;2023-04-21T04:26:53;93.20;;;52.65;;
23596;SDS011;40226;50.874;4.394;2023-04-21T04:29:20;97.43;;;52.15;;
23596;SDS011;40226;50.874;4.394;2023-04-21T04:31:47;92.97;;;51.05;;
23596;SDS011;40226;50.874;4.394;2023-04-21T04:34:13;89.68;;;50.90;;
23596;SDS011;40226;50.874;4.394;2023-04-21T04:36:39;91.85;;;51.33;;
23596;SDS011;40226;50.874;4.394;2023-04-21T04:39:06;97.10;;;52.05;;
23596;SDS011;40226;50.874;4.394;2023-04-21T04:41:34;91.10;;;51.08;;
23596;SDS011;40226;50.874;4.394;2023-04-21T04:44:02;87.80;;;48.97;;
23596;SDS011;40226;50.874;4.394;2023-04-21T04:46:29;88.68;;;50.03;;
23596;SDS011;40226;50.874;4.394;2023-04-21T04:48:55;86.07;;;49.97;;
23596;SDS011;40226;50.874;4.394;2023-04-21T04:51:20;91.07;;;51.17;;
23596;SDS011;40226;50.874;4.394;2023-04-21T04:53:47;90.63;;;50.45;;
23596;SDS011;40226;50.874;4.394;2023-04-21T04:56:13;86.72;;;49.42;;
23596;SDS011;40226;50.874;4.394;2023-04-21T04:58:38;87.80;;;51.33;;
23596;SDS011;40226;50.874;4.394;2023-04-21T05:01:13;92.05;;;50.78;;
23596;SDS011;40226;50.874;4.394;2023-04-21T05:03:40;88.53;;;49.30;;
23596;SDS011;40226;50.874;4.394;2023-04-21T05:06:06;86.60;;;49.20;;
23596;SDS011;40226;50.874;4.394;2023-04-21T05:08:32;87.68;;;49.70;;
23596;SDS011;40226;50.874;4.394;2023-04-21T05:10:58;90.10;;;51.13;;
23596;SDS011;40226;50.874;4.394;2023-04-21T05:13:23;82.80;;;47.17;;
23596;SDS011;40226;50.874;4.394;2023-04-21T05:15:55;83.55;;;48.33;;
23596;SDS011;40226;50.874;4.394;2023-04-21T05:18:22;88.05;;;50.42;;
23596;SDS011;40226;50.874;4.394;2023-04-21T05:20:47;79.65;;;46.13;;
23596;SDS011;40226;50.874;4.394;2023-04-21T05:23:13;74.85;;;44.75;;
23596;SDS011;40226;50.874;4.394;2023-04-21T05:25:38;74.68;;;44.65;;
23596;SDS011;40226;50.874;4.394;2023-04-21T05:28:04;72.75;;;43.60;;
23596;SDS011;40226;50.874;4.394;2023-04-21T05:30:29;71.80;;;41.63;;
23596;SDS011;40226;50.874;4.394;2023-04-21T05:32:55;72.38;;;43.45;;
23596;SDS011;40226;50.874;4.394;2023-04-21T05:35:21;72.35;;;42.78;;
23596;SDS011;40226;50.874;4.394;2023-04-21T05:37:46;72.68;;;41.38;;
23596;SDS011;40226;50.874;4.394;2023-04-21T05:40:12;65.63;;;39.85;;
23596;SDS011;40226;50.874;4.394;2023-04-21T05:42:37;69.13;;;39.75;;
23596;SDS011;40226;50.874;4.394;2023-04-21T05:45:03;71.88;;;42.22;;
23596;SDS011;40226;50.874;4.394;2023-04-21T05:47:29;73.38;;;42.13;;
23596;SDS011;40226;50.874;4.394;2023-04-21T05:49:55;73.70;;;41.78;;
23596;SDS011;40226;50.874;4.394;2023-04-21T05:52:20;76.28;;;43.47;;
23596;SDS011;40226;50.874;4.394;2023-04-21T05:54:46;74.53;;;43.30;;
23596;SDS011;40226;50.874;4.394;2023-04-21T05:57:12;74.20;;;42.00;;
23596;SDS011;40226;50.874;4.394;2023-04-21T05:59:37;73.72;;;43.38;;
23596;SDS011;40226;50.874;4.394;2023-04-21T06:02:03;77.75;;;43.42;;
23596;SDS011;40226;50.874;4.394;2023-04-21T06:04:29;75.03;;;42.17;;
23596;SDS011;40226;50.874;4.394;2023-04-21T06:06:54;76.38;;;42.28;;
23596;SDS011;40226;50.874;4.394;2023-04-21T06:09:20;71.30;;;41.53;;
23596;SDS011;40226;50.874;4.394;2023-04-21T06:11:47;71.78;;;41.65;;
23596;SDS011;40226;50.874;4.394;2023-04-21T06:14:14;69.32;;;39.72;;
23596;SDS011;40226;50.874;4.394;2023-04-21T06:16:40;69.70;;;41.60;;
23596;SDS011;40226;50.874;4.394;2023-04-21T06:19:05;65.63;;;39.20;;
23596;SDS011;40226;50.874;4.394;2023-04-21T06:21:31;63.88;;;38.47;;
23596;SDS011;40226;50.874;4.394;2023-04-21T06:23:56;63.13;;;38.08;;
23596;SDS011;40226;50.874;4.394;2023-04-21T06:26:22;59.22;;;36.63;;
23596;SDS011;40226;50.874;4.394;2023-04-21T06:28:48;63.72;;;37.95;;
23596;SDS011;40226;50.874;4.394;2023-04-21T06:31:13;67.35;;;39.38;;
23596;SDS011;40226;50.874;4.394;2023-04-21T06:33:39;65.30;;;38.58;;
23596;SDS011;40226;50.874;4.394;2023-04-21T06:36:05;64.60;;;38.17;;
23596;SDS011;40226;50.874;4.394;2023-04-21T06:38:31;60.75;;;36.08;;
23596;SDS011;40226;50.874;4.394;2023-04-21T06:40:57;55.25;;;35.58;;
23596;SDS011;40226;50.874;4.394;2023-04-21T06:43:23;57.55;;;36.47;;
23596;SDS011;40226;50.874;4.394;2023-04-21T06:45:48;54.38;;;34.25;;
23596;SDS011;40226;50.874;4.394;2023-04-21T06:48:14;50.10;;;32.42;;
23596;SDS011;40226;50.874;4.394;2023-04-21T06:50:40;47.10;;;31.30;;
23596;SDS011;40226;50.874;4.394;2023-04-21T06:53:09;50.47;;;31.98;;
23596;SDS011;40226;50.874;4.394;2023-04-21T06:55:35;52.80;;;32.15;;
23596;SDS011;40226;50.874;4.394;2023-04-21T06:58:01;43.30;;;29.60;;
23596;SDS011;40226;50.874;4.394;2023-04-21T07:00:27;46.45;;;31.23;;
23596;SDS011;40226;50.874;4.394;2023-04-21T07:02:52;47.40;;;30.05;;
23596;SDS011;40226;50.874;4.394;2023-04-21T07:05:18;43.80;;;29.38;;
23596;SDS011;40226;50.874;4.394;2023-04-21T07:07:44;46.30;;;31.20;;
23596;SDS011;40226;50.874;4.394;2023-04-21T07:10:09;46.60;;;30.58;;
23596;SDS011;40226;50.874;4.394;2023-04-21T07:12:35;43.83;;;28.90;;
23596;SDS011;40226;50.874;4.394;2023-04-21T07:15:00;45.90;;;29.95;;
23596;SDS011;40226;50.874;4.394;2023-04-21T07:17:26;41.65;;;28.55;;
23596;SDS011;40226;50.874;4.394;2023-04-21T07:19:52;41.90;;;28.40;;
23596;SDS011;40226;50.874;4.394;2023-04-21T07:22:17;42.35;;;27.90;;
23596;SDS011;40226;50.874;4.394;2023-04-21T07:24:43;42.72;;;28.30;;
23596;SDS011;40226;50.874;4.394;2023-04-21T07:27:08;42.22;;;28.45;;
23596;SDS011;40226;50.874;4.394;2023-04-21T07:29:34;40.10;;;27.00;;
23596;SDS011;40226;50.874;4.394;2023-04-21T07:32:01;40.85;;;26.50;;
23596;SDS011;40226;50.874;4.394;2023-04-21T07:34:26;38.70;;;25.02;;
23596;SDS011;40226;50.874;4.394;2023-04-21T07:36:53;37.53;;;25.30;;
23596;SDS011;40226;50.874;4.394;2023-04-21T07:39:19;42.33;;;25.52;;
23596;SDS011;40226;50.874;4.394;2023-04-21T07:41:45;40.92;;;26.75;;
23596;SDS011;40226;50.874;4.394;2023-04-21T07:44:11;35.50;;;24.38;;
23596;SDS011;40226;50.874;4.394;2023-04-21T07:46:36;39.45;;;26.00;;
23596;SDS011;40226;50.874;4.394;2023-04-21T07:49:02;35.33;;;23.00;;
23596;SDS011;40226;50.874;4.394;2023-04-21T07:51:28;35.25;;;23.30;;
23596;SDS011;40226;50.874;4.394;2023-04-21T07:53:53;36.15;;;22.88;;
23596;SDS011;40226;50.874;4.394;2023-04-21T07:56:19;34.85;;;22.40;;
23596;SDS011;40226;50.874;4.394;2023-04-21T07:58:45;30.20;;;21.27;;
23596;SDS011;40226;50.874;4.394;2023-04-21T08:01:11;33.67;;;20.85;;
23596;SDS011;40226;50.874;4.394;2023-04-21T08:03:36;33.80;;;21.73;;
23596;SDS011;40226;50.874;4.394;2023-04-21T08:06:02;33.08;;;20.35;;
23596;SDS011;40226;50.874;4.394;2023-04-21T08:08:28;29.40;;;20.35;;
23596;SDS011;40226;50.874;4.394;2023-04-21T08:10:54;26.10;;;19.50;;
23596;SDS011;40226;50.874;4.394;2023-04-21T08:13:19;27.38;;;18.92;;
23596;SDS011;40226;50.874;4.394;2023-04-21T08:15:49;26.65;;;18.88;;
23596;SDS011;40226;50.874;4.394;2023-04-21T08:18:15;29.00;;;19.48;;
23596;SDS011;40226;50.874;4.394;2023-04-21T08:20:42;25.58;;;18.15;;
23596;SDS011;40226;50.874;4.394;2023-04-21T08:23:12;28.35;;;19.60;;
23596;SDS011;40226;50.874;4.394;2023-04-21T08:25:38;26.02;;;18.20;;
23596;SDS011;40226;50.874;4.394;2023-04-21T08:28:04;25.67;;;17.83;;
23596;SDS011;40226;50.874;4.394;2023-04-21T08:30:30;24.48;;;18.13;;
23596;SDS011;40226;50.874;4.394;2023-04-21T08:32:55;28.88;;;18.77;;
23596;SDS011;40226;50.874;4.394;2023-04-21T08:35:21;24.83;;;17.30;;
23596;SDS011;40226;50.874;4.394;2023-04-21T08:37:47;27.92;;;17.90;;
23596;SDS011;40226;50.874;4.394;2023-04-21T08:40:12;25.98;;;17.73;;
23596;SDS011;40226;50.874;4.394;2023-04-21T08:42:38;23.20;;;17.67;;
23596;SDS011;40226;50.874;4.394;2023-04-21T08:45:04;25.10;;;18.55;;
23596;SDS011;40226;50.874;4.394;2023-04-21T08:47:34;24.58;;;17.27;;
23596;SDS011;40226;50.874;4.394;2023-04-21T08:50:02;26.60;;;18.83;;
23596;SDS011;40226;50.874;4.394;2023-04-21T08:52:28;25.25;;;17.90;;
23596;SDS011;40226;50.874;4.394;2023-04-21T08:54:54;24.17;;;17.48;;
23596;SDS011;40226;50.874;4.394;2023-04-21T08:57:20;25.80;;;18.48;;
23596;SDS011;40226;50.874;4.394;2023-04-21T08:59:46;27.20;;;18.60;;
23596;SDS011;40226;50.874;4.394;2023-04-21T09:02:12;28.33;;;19.30;;
23596;SDS011;40226;50.874;4.394;2023-04-21T09:04:46;27.08;;;19.08;;
23596;SDS011;40226;50.874;4.394;2023-04-21T09:07:30;26.63;;;18.42;;
23596;SDS011;40226;50.874;4.394;2023-04-21T09:10:05;27.88;;;19.05;;
23596;SDS011;40226;50.874;4.394;2023-04-21T09:12:31;29.02;;;19.20;;
23596;SDS011;40226;50.874;4.394;2023-04-21T09:14:57;30.25;;;19.98;;
23596;SDS011;40226;50.874;4.394;2023-04-21T09:17:27;26.85;;;18.98;;
23596;SDS011;40226;50.874;4.394;2023-04-21T09:20:02;24.70;;;17.85;;
23596;SDS011;40226;50.874;4.394;2023-04-21T09:22:42;24.80;;;18.15;;
23596;SDS011;40226;50.874;4.394;2023-04-21T09:25:08;25.80;;;17.58;;
23596;SDS011;40226;50.874;4.394;2023-04-21T09:27:35;24.23;;;16.52;;
23596;SDS011;40226;50.874;4.394;2023-04-21T09:30:04;24.83;;;16.60;;
23596;SDS011;40226;50.874;4.394;2023-04-21T09:32:35;26.10;;;17.85;;
23596;SDS011;40226;50.874;4.394;2023-04-21T09:35:05;25.08;;;18.15;;
23596;SDS011;40226;50.874;4.394;2023-04-21T09:37:37;26.33;;;17.25;;
23596;SDS011;40226;50.874;4.394;2023-04-21T09:40:04;29.73;;;18.70;;
23596;SDS011;40226;50.874;4.394;2023-04-21T09:42:31;25.77;;;17.67;;
23596;SDS011;40226;50.874;4.394;2023-04-21T09:44:57;22.15;;;17.73;;
23596;SDS011;40226;50.874;4.394;2023-04-21T09:47:23;22.40;;;16.98;;
23596;SDS011;40226;50.874;4.394;2023-04-21T09:49:52;24.63;;;16.83;;
23596;SDS011;40226;50.874;4.394;2023-04-21T09:52:18;21.85;;;15.27;;
23596;SDS011;40226;50.874;4.394;2023-04-21T09:54:51;23.00;;;16.50;;
23596;SDS011;40226;50.874;4.394;2023-04-21T09:57:24;20.35;;;14.85;;
23596;SDS011;40226;50.874;4.394;2023-04-21T09:59:54;20.02;;;14.88;;
23596;SDS011;40226;50.874;4.394;2023-04-21T10:02:24;20.27;;;15.40;;
23596;SDS011;40226;50.874;4.394;2023-04-21T10:04:52;22.50;;;15.60;;
23596;SDS011;40226;50.874;4.394;2023-04-21T10:07:18;20.60;;;14.93;;
23596;SDS011;40226;50.874;4.394;2023-04-21T10:09:46;21.85;;;15.18;;
23596;SDS011;40226;50.874;4.394;2023-04-21T10:12:18;22.50;;;16.20;;
23596;SDS011;40226;50.874;4.394;2023-04-21T10:14:44;20.65;;;14.95;;
23596;SDS011;40226;50.874;4.394;2023-04-21T10:17:10;23.38;;;15.98;;
23596;SDS011;40226;50.874;4.394;2023-04-21T10:19:37;23.50;;;15.48;;
23596;SDS011;40226;50.874;4.394;2023-04-21T10:22:14;19.92;;;14.32;;
23596;SDS011;40226;50.874;4.394;2023-04-21T10:24:54;19.98;;;14.75;;
23596;SDS011;40226;50.874;4.394;2023-04-21T10:27:31;20.90;;;15.43;;
23596;SDS011;40226;50.874;4.394;2023-04-21T10:30:17;19.60;;;14.20;;
23596;SDS011;40226;50.874;4.394;2023-04-21T10:32:44;21.35;;;14.85;;
23596;SDS011;40226;50.874;4.394;2023-04-21T10:35:14;21.08;;;13.95;;
23596;SDS011;40226;50.874;4.394;2023-04-21T10:37:42;19.85;;;14.70;;
23596;SDS011;40226;50.874;4.394;2023-04-21T10:40:50;19.95;;;14.35;;
23596;SDS011;40226;50.874;4.394;2023-04-21T10:42:57;19.33;;;13.40;;
23596;SDS011;40226;50.874;4.394;2023-04-21T10:45:25;18.05;;;12.80;;
23596;SDS011;40226;50.874;4.394;2023-04-21T10:47:52;19.55;;;13.63;;
23596;SDS011;40226;50.874;4.394;2023-04-21T10:50:26;17.13;;;13.18;;
23596;SDS011;40226;50.874;4.394;2023-04-21T10:52:57;19.55;;;13.85;;
23596;SDS011;40226;50.874;4.394;2023-04-21T10:55:36;17.48;;;12.32;;
23596;SDS011;40226;50.874;4.394;2023-04-21T10:58:03;18.52;;;13.40;;
23596;SDS011;40226;50.874;4.394;2023-04-21T11:00:33;16.25;;;12.07;;
23596;SDS011;40226;50.874;4.394;2023-04-21T11:03:00;15.00;;;11.50;;
23596;SDS011;40226;50.874;4.394;2023-04-21T11:05:31;15.60;;;12.40;;
23596;SDS011;40226;50.874;4.394;2023-04-21T11:08:09;15.80;;;12.05;;
23596;SDS011;40226;50.874;4.394;2023-04-21T11:13:16;14.85;;;12.93;;
23596;SDS011;40226;50.874;4.394;2023-04-21T11:16:01;15.02;;;11.95;;
23596;SDS011;40226;50.874;4.394;2023-04-21T11:18:31;14.57;;;11.23;;
23596;SDS011;40226;50.874;4.394;2023-04-21T11:21:13;14.73;;;11.35;;
23596;SDS011;40226;50.874;4.394;2023-04-21T11:23:52;15.95;;;11.00;;
23596;SDS011;40226;50.874;4.394;2023-04-21T11:26:28;12.30;;;10.20;;
23596;SDS011;40226;50.874;4.394;2023-04-21T11:28:55;15.98;;;10.75;;
23596;SDS011;40226;50.874;4.394;2023-04-21T11:31:26;14.43;;;11.25;;
23596;SDS011;40226;50.874;4.394;2023-04-21T11:33:54;14.73;;;11.38;;
23596;SDS011;40226;50.874;4.394;2023-04-21T11:36:20;13.70;;;10.60;;
23596;SDS011;40226;50.874;4.394;2023-04-21T11:38:46;13.75;;;10.50;;
23596;SDS011;40226;50.874;4.394;2023-04-21T11:41:19;11.52;;;10.20;;
23596;SDS011;40226;50.874;4.394;2023-04-21T11:43:46;14.27;;;9.93;;
23596;SDS011;40226;50.874;4.394;2023-04-21T11:48:46;11.73;;;10.48;;
23596;SDS011;40226;50.874;4.394;2023-04-21T11:51:23;15.48;;;11.57;;
23596;SDS011;40226;50.874;4.394;2023-04-21T11:53:48;13.13;;;11.10;;
23596;SDS011;40226;50.874;4.394;2023-04-21T11:56:17;12.52;;;10.60;;
23596;SDS011;40226;50.874;4.394;2023-04-21T11:58:49;15.55;;;11.85;;
23596;SDS011;40226;50.874;4.394;2023-04-21T12:01:16;13.65;;;11.02;;
23596;SDS011;40226;50.874;4.394;2023-04-21T12:03:50;14.55;;;10.32;;
23596;SDS011;40226;50.874;4.394;2023-04-21T12:06:23;13.43;;;10.55;;
23596;SDS011;40226;50.874;4.394;2023-04-21T12:08:59;13.65;;;11.35;;
23596;SDS011;40226;50.874;4.394;2023-04-21T12:11:26;12.60;;;10.40;;
23596;SDS011;40226;50.874;4.394;2023-04-21T12:13:52;13.20;;;9.63;;
23596;SDS011;40226;50.874;4.394;2023-04-21T12:16:22;12.45;;;9.80;;
23596;SDS011;40226;50.874;4.394;2023-04-21T12:18:51;11.45;;;8.75;;
23596;SDS011;40226;50.874;4.394;2023-04-21T12:21:17;10.15;;;8.68;;
23596;SDS011;40226;50.874;4.394;2023-04-21T12:23:42;9.27;;;7.28;;
23596;SDS011;40226;50.874;4.394;2023-04-21T12:26:09;9.65;;;7.25;;
23596;SDS011;40226;50.874;4.394;2023-04-21T12:28:36;11.45;;;7.43;;
23596;SDS011;40226;50.874;4.394;2023-04-21T12:31:02;10.30;;;8.70;;
23596;SDS011;40226;50.874;4.394;2023-04-21T12:33:28;10.48;;;8.57;;
23596;SDS011;40226;50.874;4.394;2023-04-21T12:35:53;10.27;;;9.05;;
23596;SDS011;40226;50.874;4.394;2023-04-21T12:38:19;11.40;;;8.82;;
23596;SDS011;40226;50.874;4.394;2023-04-21T12:40:45;11.07;;;8.35;;
23596;SDS011;40226;50.874;4.394;2023-04-21T12:43:10;12.73;;;8.23;;
23596;SDS011;40226;50.874;4.394;2023-04-21T12:45:36;8.18;;;6.65;;
23596;SDS011;40226;50.874;4.394;2023-04-21T12:48:02;9.70;;;7.15;;
23596;SDS011;40226;50.874;4.394;2023-04-21T12:50:29;8.73;;;6.18;;
23596;SDS011;40226;50.874;4.394;2023-04-21T12:52:54;9.48;;;7.53;;
23596;SDS011;40226;50.874;4.394;2023-04-21T12:55:23;9.20;;;7.35;;
23596;SDS011;40226;50.874;4.394;2023-04-21T12:57:49;10.95;;;7.82;;
23596;SDS011;40226;50.874;4.394;2023-04-21T13:00:15;10.27;;;7.75;;
23596;SDS011;40226;50.874;4.394;2023-04-21T13:02:41;10.48;;;8.23;;
23596;SDS011;40226;50.874;4.394;2023-04-21T13:05:07;13.32;;;8.95;;
23596;SDS011;40226;50.874;4.394;2023-04-21T13:07:34;10.30;;;9.20;;
23596;SDS011;40226;50.874;4.394;2023-04-21T13:10:01;10.48;;;8.43;;
23596;SDS011;40226;50.874;4.394;2023-04-21T13:12:30;10.07;;;8.48;;
23596;SDS011;40226;50.874;4.394;2023-04-21T13:14:56;13.32;;;10.40;;
23596;SDS011;40226;50.874;4.394;2023-04-21T13:17:21;12.60;;;10.65;;
23596;SDS011;40226;50.874;4.394;2023-04-21T13:19:47;14.48;;;11.98;;
23596;SDS011;40226;50.874;4.394;2023-04-21T13:22:13;14.13;;;11.10;;
23596;SDS011;40226;50.874;4.394;2023-04-21T13:24:38;16.88;;;11.93;;
23596;SDS011;40226;50.874;4.394;2023-04-21T13:27:04;13.02;;;10.75;;
23596;SDS011;40226;50.874;4.394;2023-04-21T13:29:30;14.38;;;10.65;;
23596;SDS011;40226;50.874;4.394;2023-04-21T13:32:02;11.80;;;10.05;;
23596;SDS011;40226;50.874;4.394;2023-04-21T13:34:28;11.48;;;9.65;;
23596;SDS011;40226;50.874;4.394;2023-04-21T13:36:55;14.48;;;9.80;;
23596;SDS011;40226;50.874;4.394;2023-04-21T13:39:20;14.98;;;10.57;;
23596;SDS011;40226;50.874;4.394;2023-04-21T13:41:46;12.57;;;9.98;;
23596;SDS011;40226;50.874;4.394;2023-04-21T13:44:12;12.80;;;10.35;;
23596;SDS011;40226;50.874;4.394;2023-04-21T13:46:38;12.52;;;9.60;;
23596;SDS011;40226;50.874;4.394;2023-04-21T13:49:04;11.82;;;8.57;;
23596;SDS011;40226;50.874;4.394;2023-04-21T13:51:30;11.82;;;9.40;;
23596;SDS011;40226;50.874;4.394;2023-04-21T13:53:56;11.52;;;7.90;;
23596;SDS011;40226;50.874;4.394;2023-04-21T13:56:22;10.32;;;8.13;;
23596;SDS011;40226;50.874;4.394;2023-04-21T13:58:47;9.15;;;8.15;;
23596;SDS011;40226;50.874;4.394;2023-04-21T14:01:13;9.45;;;7.70;;
23596;SDS011;40226;50.874;4.394;2023-04-21T14:03:39;8.20;;;6.63;;
23596;SDS011;40226;50.874;4.394;2023-04-21T14:06:05;7.97;;;6.93;;
23596;SDS011;40226;50.874;4.394;2023-04-21T14:08:31;14.20;;;7.03;;
23596;SDS011;40226;50.874;4.394;2023-04-21T14:10:57;8.85;;;6.50;;
23596;SDS011;40226;50.874;4.394;2023-04-21T14:13:23;9.02;;;6.93;;
23596;SDS011;40226;50.874;4.394;2023-04-21T14:15:52;11.35;;;6.53;;
23596;SDS011;40226;50.874;4.394;2023-04-21T14:18:19;8.23;;;6.30;;
23596;SDS011;40226;50.874;4.394;2023-04-21T14:20:44;7.47;;;6.57;;
23596;SDS011;40226;50.874;4.394;2023-04-21T14:23:10;8.35;;;6.63;;
23596;SDS011;40226;50.874;4.394;2023-04-21T14:25:36;9.52;;;6.55;;
23596;SDS011;40226;50.874;4.394;2023-04-21T14:28:02;9.82;;;7.30;;